Terminal Aerodrome Forecast
Issued by NWS

Home | Current Version | Previous Version | Text Only | Print | Product List | Glossary On
Versions: 1 2 3 4 5 6 7 8 9 10 11 12 13 14 15 16 17 18 19 20 21 22 23
000
FTUS42 KFFC 031304 AAA
TAFFTY
TAF AMD
KFTY 031304Z 0313/0412 00000KT P6SM SKC
     FM031700 09006KT P6SM VCSH SCT030 BKN050
      TEMPO 0319/0322 VRB15G25KT 5SM TSRA BKN045CB
     FM040000 09005KT P6SM FEW050 SCT100
     FM040800 08005KT P6SM BKN007=

USA.gov is the U.S. government's official web portal to all federal, state and local government web resources and services.